Main page
METAR-TAF:

METAR-TAF

Airports :

RAF Boulmer

Boulmer, England

latitude: 55-25-19N, longitude: 1-36-12W, elevation: 24 m

Current weather observation

The report was made 44 minutes ago, at 22:20 UTC
Wind 4 kt from the Northwest
Temperature 11°C
Humidity 82%
Pressure 1016 hPa
Visibility 10 km or more

METAR: EGQM 122220Z AUTO 31004KT 9999 SCT019/// 11/08 Q1016

Time: 00:04 (23:04 UTC)


TAF: missing

Weather observations and forecasts of more than 4000 airports (METAR and TAF reports).

The available stations are represented by yellow and red dots on the map.

Hover mouse over dot to see the name of the station.

Then click to see weather observations and forecasts.

To change the map : click on the green buttons with a black cross to zoom in, on the green button with a dash to zoom out, or on the green arrows for adjacent maps.


METAR-TAF: